Norwegian Epic — C6XP7 — position and weather

sailwx.info

Track history (hours):
 
Tides and Currents Weather Stations Pressure Air Temp Water Temp Dewpoint Dewpoint Depression Visibility Wind Speed Wind Dir Waves Ship Positions

Norwegian Epic

Last reported at 2017-Jan-16 22:22 UTC. Time now 2017-Jan-19 21:21 UTC.
Position N 20°39' W 086°42'.

Length 329 m; draft 9.2 m.

Type: Passenger vessel. MMSI: 311018500.

Date/timePositionNaut miles runAvg speedWind from/ knotsBaromVisibWave heightAir tempDewpointWater temp
2017-Jan-16 22:22N 20°39' W 086°42'1518.5
2017-Jan-16 21:33N 20°34' W 086°57'3 3.3
2017-Jan-16 20:33N 20°31' W 086°57'0 0.0
2017-Jan-16 19:31N 20°31' W 086°57'0 0.0
2017-Jan-16 18:32N 20°31' W 086°57'0 0.0
2017-Jan-16 17:32N 20°31' W 086°57'0 0.0
2017-Jan-16 16:33N 20°31' W 086°57'0 0.0
2017-Jan-16 15:31N 20°31' W 086°57'0 0.0
2017-Jan-16 14:31N 20°31' W 086°57'0 0.0
2017-Jan-16 13:32N 20°31' W 086°57'0 0.0
2017-Jan-16 12:33N 20°31' W 086°57'2 1.9
2017-Jan-16 11:33N 20°33' W 086°58'1312.7
2017-Jan-16 10:32N 20°44' W 086°51'46118.5
2017-Jan-15 09:33N 25°15' W 080°05'1818.3
2017-Jan-15 08:33N 25°32' W 079°59'1818.2
2017-Jan-15 07:33N 25°50' W 079°56'1918.7
2017-Jan-15 06:33N 26°08' W 079°50'1918.6
2017-Jan-15 05:33N 26°26' W 079°52'1918.6
2017-Jan-15 04:32N 26°45' W 079°54'1818.4
2017-Jan-15 03:33N 27°03' W 079°55'  
2017-Jan-10 01:32N 26°20' W 079°29'1716.8
2017-Jan-10 00:33N 26°04' W 079°33'1717.0
2017-Jan-09 23:33N 25°48' W 079°38'1716.9
2017-Jan-09 22:33N 25°31' W 079°40'  
Track history (hours):
 
Tides and Currents Weather Stations Pressure Air Temp Water Temp Dewpoint Dewpoint Depression Visibility Wind Speed Wind Dir Waves Ship Positions

Norwegian Epic

Last reported at 2017-Jan-16 22:22 UTC. Time now 2017-Jan-19 21:21 UTC.
Position N 20°39' W 086°42'.

Length 329 m; draft 9.2 m.

Type: Passenger vessel. MMSI: 311018500.

Date/timePositionNaut miles runAvg speedWind from/ knotsBaromVisibWave heightAir tempDewpointWater temp
2017-Jan-16 22:22N 20°39' W 086°42'1518.5
2017-Jan-16 21:33N 20°34' W 086°57'3 3.3
2017-Jan-16 20:33N 20°31' W 086°57'0 0.0
2017-Jan-16 19:31N 20°31' W 086°57'0 0.0
2017-Jan-16 18:32N 20°31' W 086°57'0 0.0
2017-Jan-16 17:32N 20°31' W 086°57'0 0.0
2017-Jan-16 16:33N 20°31' W 086°57'0 0.0
2017-Jan-16 15:31N 20°31' W 086°57'0 0.0
2017-Jan-16 14:31N 20°31' W 086°57'0 0.0
2017-Jan-16 13:32N 20°31' W 086°57'0 0.0
2017-Jan-16 12:33N 20°31' W 086°57'2 1.9
2017-Jan-16 11:33N 20°33' W 086°58'1312.7
2017-Jan-16 10:32N 20°44' W 086°51'46118.5
2017-Jan-15 09:33N 25°15' W 080°05'1818.3
2017-Jan-15 08:33N 25°32' W 079°59'1818.2
2017-Jan-15 07:33N 25°50' W 079°56'1918.7
2017-Jan-15 06:33N 26°08' W 079°50'1918.6
2017-Jan-15 05:33N 26°26' W 079°52'1918.6
2017-Jan-15 04:32N 26°45' W 079°54'1818.4
2017-Jan-15 03:33N 27°03' W 079°55'  
2017-Jan-10 01:32N 26°20' W 079°29'1716.8
2017-Jan-10 00:33N 26°04' W 079°33'1717.0
2017-Jan-09 23:33N 25°48' W 079°38'1716.9
2017-Jan-09 22:33N 25°31' W 079°40'  

Dump ship's entire track history